sensor_id;sensor_type;location;lat;lon;timestamp;pressure;altitude;pressure_sealevel;temperature;humidity
62402;BME280;48440;51.224;22.506;2023-02-10T00:00:55;100763.75;;;-2.51;64.04
62402;BME280;48440;51.224;22.506;2023-02-10T00:03:20;100764.47;;;-2.49;63.68
62402;BME280;48440;51.224;22.506;2023-02-10T00:05:45;100778.34;;;-2.45;63.82
62402;BME280;48440;51.224;22.506;2023-02-10T00:08:11;100781.84;;;-2.45;63.51
62402;BME280;48440;51.224;22.506;2023-02-10T00:10:37;100783.25;;;-2.41;63.24
62402;BME280;48440;51.224;22.506;2023-02-10T00:13:02;100776.13;;;-2.40;63.25
62402;BME280;48440;51.224;22.506;2023-02-10T00:15:28;100768.81;;;-2.48;64.04
62402;BME280;48440;51.224;22.506;2023-02-10T00:17:53;100763.38;;;-2.46;64.32
62402;BME280;48440;51.224;22.506;2023-02-10T00:20:18;100758.19;;;-2.48;64.29
62402;BME280;48440;51.224;22.506;2023-02-10T00:22:44;100757.47;;;-2.50;64.35
62402;BME280;48440;51.224;22.506;2023-02-10T00:25:10;100750.59;;;-2.52;64.32
62402;BME280;48440;51.224;22.506;2023-02-10T00:27:35;100751.00;;;-2.57;64.96
62402;BME280;48440;51.224;22.506;2023-02-10T00:30:00;100751.72;;;-2.55;64.56
62402;BME280;48440;51.224;22.506;2023-02-10T00:32:26;100753.13;;;-2.60;65.03
62402;BME280;48440;51.224;22.506;2023-02-10T00:34:51;100750.72;;;-2.63;64.49
62402;BME280;48440;51.224;22.506;2023-02-10T00:37:17;100746.25;;;-2.63;64.84
62402;BME280;48440;51.224;22.506;2023-02-10T00:39:42;100741.34;;;-2.67;64.58
62402;BME280;48440;51.224;22.506;2023-02-10T00:42:08;100737.97;;;-2.69;64.45
62402;BME280;48440;51.224;22.506;2023-02-10T00:44:33;100729.44;;;-2.73;64.41
62402;BME280;48440;51.224;22.506;2023-02-10T00:46:59;100732.94;;;-2.72;64.47
62402;BME280;48440;51.224;22.506;2023-02-10T00:49:24;100719.50;;;-2.71;64.28
62402;BME280;48440;51.224;22.506;2023-02-10T00:51:50;100726.19;;;-2.77;64.72
62402;BME280;48440;51.224;22.506;2023-02-10T00:54:15;100708.69;;;-2.79;64.60
62402;BME280;48440;51.224;22.506;2023-02-10T00:56:41;100699.03;;;-2.80;64.88
62402;BME280;48440;51.224;22.506;2023-02-10T00:59:06;100692.31;;;-2.84;64.61
62402;BME280;48440;51.224;22.506;2023-02-10T01:01:32;100689.66;;;-2.84;64.63
62402;BME280;48440;51.224;22.506;2023-02-10T01:03:57;100693.16;;;-2.84;64.92
62402;BME280;48440;51.224;22.506;2023-02-10T01:06:22;100689.53;;;-2.83;64.58
62402;BME280;48440;51.224;22.506;2023-02-10T01:08:48;100688.53;;;-2.82;64.66
62402;BME280;48440;51.224;22.506;2023-02-10T01:11:14;100686.88;;;-2.83;64.49
62402;BME280;48440;51.224;22.506;2023-02-10T01:13:40;100682.41;;;-2.82;64.47
62402;BME280;48440;51.224;22.506;2023-02-10T01:16:10;100676.66;;;-2.87;64.55
62402;BME280;48440;51.224;22.506;2023-02-10T01:18:38;100674.72;;;-2.76;64.08
62402;BME280;48440;51.224;22.506;2023-02-10T01:21:12;100679.91;;;-2.74;64.43
62402;BME280;48440;51.224;22.506;2023-02-10T01:23:38;100676.00;;;-2.70;63.83
62402;BME280;48440;51.224;22.506;2023-02-10T01:26:04;100678.94;;;-2.73;64.25
62402;BME280;48440;51.224;22.506;2023-02-10T01:28:29;100669.16;;;-2.72;64.07
62402;BME280;48440;51.224;22.506;2023-02-10T01:30:55;100666.88;;;-2.77;64.19
62402;BME280;48440;51.224;22.506;2023-02-10T01:33:20;100668.72;;;-2.78;64.30
62402;BME280;48440;51.224;22.506;2023-02-10T01:35:46;100669.69;;;-2.79;64.23
62402;BME280;48440;51.224;22.506;2023-02-10T01:38:11;100665.47;;;-2.81;64.28
62402;BME280;48440;51.224;22.506;2023-02-10T01:40:36;100659.19;;;-2.80;64.47
62402;BME280;48440;51.224;22.506;2023-02-10T01:43:04;100656.78;;;-2.83;64.11
62402;BME280;48440;51.224;22.506;2023-02-10T01:45:36;100656.53;;;-2.80;64.06
62402;BME280;48440;51.224;22.506;2023-02-10T01:48:03;100660.16;;;-2.81;63.71
62402;BME280;48440;51.224;22.506;2023-02-10T01:50:34;100645.91;;;-2.80;63.96
62402;BME280;48440;51.224;22.506;2023-02-10T01:53:01;100653.47;;;-2.76;63.89
62402;BME280;48440;51.224;22.506;2023-02-10T01:55:31;100657.53;;;-2.71;63.72
62402;BME280;48440;51.224;22.506;2023-02-10T01:58:04;100667.19;;;-2.70;63.82
62402;BME280;48440;51.224;22.506;2023-02-10T02:00:30;100665.25;;;-2.68;63.59
62402;BME280;48440;51.224;22.506;2023-02-10T02:02:56;100671.25;;;-2.66;63.61
62402;BME280;48440;51.224;22.506;2023-02-10T02:05:28;100668.19;;;-2.62;63.77
62402;BME280;48440;51.224;22.506;2023-02-10T02:07:54;100668.06;;;-2.60;63.08
62402;BME280;48440;51.224;22.506;2023-02-10T02:10:23;100667.06;;;-2.59;62.85
62402;BME280;48440;51.224;22.506;2023-02-10T02:13:04;100670.56;;;-2.59;63.21
62402;BME280;48440;51.224;22.506;2023-02-10T02:15:40;100668.91;;;-2.60;62.74
62402;BME280;48440;51.224;22.506;2023-02-10T02:34:13;100658.66;;;-2.74;62.59
62402;BME280;48440;51.224;22.506;2023-02-10T02:36:52;100654.31;;;-2.75;62.53
62402;BME280;48440;51.224;22.506;2023-02-10T02:39:21;100659.34;;;-2.72;62.70
62402;BME280;48440;51.224;22.506;2023-02-10T02:41:47;100654.16;;;-2.74;62.06
62402;BME280;48440;51.224;22.506;2023-02-10T02:44:12;100652.63;;;-2.76;62.53
62402;BME280;48440;51.224;22.506;2023-02-10T02:52:12;100633.47;;;-2.80;62.44
62402;BME280;48440;51.224;22.506;2023-02-10T02:54:47;100638.63;;;-2.78;62.16
62402;BME280;48440;51.224;22.506;2023-02-10T02:57:34;100638.06;;;-2.82;62.51
62402;BME280;48440;51.224;22.506;2023-02-10T03:00:22;100638.34;;;-2.85;62.69
62402;BME280;48440;51.224;22.506;2023-02-10T03:02:49;100646.59;;;-2.88;62.98
62402;BME280;48440;51.224;22.506;2023-02-10T03:05:19;100637.34;;;-2.93;63.37
62402;BME280;48440;51.224;22.506;2023-02-10T03:07:46;100647.84;;;-2.92;63.26
62402;BME280;48440;51.224;22.506;2023-02-10T03:10:12;100648.97;;;-2.94;63.36
62402;BME280;48440;51.224;22.506;2023-02-10T03:12:38;100651.88;;;-2.97;63.39
62402;BME280;48440;51.224;22.506;2023-02-10T03:15:03;100653.81;;;-2.99;63.68
62402;BME280;48440;51.224;22.506;2023-02-10T03:17:29;100665.88;;;-2.95;63.58
62402;BME280;48440;51.224;22.506;2023-02-10T03:19:54;100662.63;;;-2.99;63.50
62402;BME280;48440;51.224;22.506;2023-02-10T03:22:20;100669.75;;;-2.99;63.29
62402;BME280;48440;51.224;22.506;2023-02-10T03:24:45;100669.06;;;-3.01;63.71
62402;BME280;48440;51.224;22.506;2023-02-10T03:27:10;100671.97;;;-3.04;63.87
62402;BME280;48440;51.224;22.506;2023-02-10T03:29:36;100665.38;;;-3.10;63.48
62402;BME280;48440;51.224;22.506;2023-02-10T03:32:01;100663.44;;;-3.08;63.82
62402;BME280;48440;51.224;22.506;2023-02-10T03:34:29;100665.94;;;-3.16;63.71
62402;BME280;48440;51.224;22.506;2023-02-10T03:36:54;100662.00;;;-3.22;63.94
62402;BME280;48440;51.224;22.506;2023-02-10T03:39:20;100667.44;;;-3.23;64.01
62402;BME280;48440;51.224;22.506;2023-02-10T03:41:45;100662.53;;;-3.28;64.36
62402;BME280;48440;51.224;22.506;2023-02-10T03:44:11;100663.38;;;-3.27;64.17
62402;BME280;48440;51.224;22.506;2023-02-10T03:46:36;100665.56;;;-3.32;64.07
62402;BME280;48440;51.224;22.506;2023-02-10T03:49:03;100667.00;;;-3.28;63.79
62402;BME280;48440;51.224;22.506;2023-02-10T03:51:29;100679.44;;;-3.29;64.25
62402;BME280;48440;51.224;22.506;2023-02-10T03:53:54;100668.81;;;-3.29;64.17
62402;BME280;48440;51.224;22.506;2023-02-10T03:56:20;100669.66;;;-3.28;64.17
62402;BME280;48440;51.224;22.506;2023-02-10T03:58:45;100667.69;;;-3.26;64.01
62402;BME280;48440;51.224;22.506;2023-02-10T04:01:13;100671.91;;;-3.24;63.58
62402;BME280;48440;51.224;22.506;2023-02-10T04:03:39;100657.53;;;-3.21;63.27
62402;BME280;48440;51.224;22.506;2023-02-10T04:06:04;100647.31;;;-3.26;62.79
62402;BME280;48440;51.224;22.506;2023-02-10T04:08:30;100650.81;;;-3.25;63.18
62402;BME280;48440;51.224;22.506;2023-02-10T04:10:55;100647.81;;;-3.32;63.43
62402;BME280;48440;51.224;22.506;2023-02-10T04:13:21;100641.94;;;-3.35;63.47
62402;BME280;48440;51.224;22.506;2023-02-10T04:15:46;100639.59;;;-3.29;63.57
62402;BME280;48440;51.224;22.506;2023-02-10T04:18:13;100642.13;;;-3.27;63.01
62402;BME280;48440;51.224;22.506;2023-02-10T04:20:38;100638.63;;;-3.28;63.13
62402;BME280;48440;51.224;22.506;2023-02-10T04:23:04;100648.66;;;-3.31;63.22
62402;BME280;48440;51.224;22.506;2023-02-10T04:25:29;100643.06;;;-3.38;63.46
62402;BME280;48440;51.224;22.506;2023-02-10T04:27:54;100642.38;;;-3.40;63.07
62402;BME280;48440;51.224;22.506;2023-02-10T04:30:20;100639.72;;;-3.40;63.57
62402;BME280;48440;51.224;22.506;2023-02-10T04:32:45;100642.06;;;-3.37;63.22
62402;BME280;48440;51.224;22.506;2023-02-10T04:35:11;100647.69;;;-3.40;63.38
62402;BME280;48440;51.224;22.506;2023-02-10T04:37:36;100648.94;;;-3.34;62.78
62402;BME280;48440;51.224;22.506;2023-02-10T04:40:02;100654.50;;;-3.37;62.79
62402;BME280;48440;51.224;22.506;2023-02-10T04:42:27;100653.69;;;-3.38;63.26
62402;BME280;48440;51.224;22.506;2023-02-10T04:44:57;100653.38;;;-3.45;62.97
62402;BME280;48440;51.224;22.506;2023-02-10T04:47:24;100644.81;;;-3.48;63.06
62402;BME280;48440;51.224;22.506;2023-02-10T04:49:50;100645.09;;;-3.51;62.97
62402;BME280;48440;51.224;22.506;2023-02-10T04:52:15;100645.22;;;-3.53;62.76
62402;BME280;48440;51.224;22.506;2023-02-10T04:54:41;100644.63;;;-3.56;63.51
62402;BME280;48440;51.224;22.506;2023-02-10T04:57:06;100642.25;;;-3.59;63.45
62402;BME280;48440;51.224;22.506;2023-02-10T04:59:32;100636.22;;;-3.61;63.57
62402;BME280;48440;51.224;22.506;2023-02-10T05:01:57;100629.41;;;-3.64;63.72
62402;BME280;48440;51.224;22.506;2023-02-10T05:04:22;100628.25;;;-3.61;63.43
62402;BME280;48440;51.224;22.506;2023-02-10T05:06:48;100627.00;;;-3.67;63.54
62402;BME280;48440;51.224;22.506;2023-02-10T05:09:13;100623.63;;;-3.69;63.28
62402;BME280;48440;51.224;22.506;2023-02-10T05:11:39;100625.44;;;-3.69;63.73
62402;BME280;48440;51.224;22.506;2023-02-10T05:14:04;100618.91;;;-3.65;63.64
62402;BME280;48440;51.224;22.506;2023-02-10T05:16:30;100611.47;;;-3.71;63.47
62402;BME280;48440;51.224;22.506;2023-02-10T05:18:55;100617.63;;;-3.71;63.33
62402;BME280;48440;51.224;22.506;2023-02-10T05:21:21;100613.28;;;-3.72;63.97
62402;BME280;48440;51.224;22.506;2023-02-10T05:23:46;100622.34;;;-3.74;63.43
62402;BME280;48440;51.224;22.506;2023-02-10T05:26:11;100612.56;;;-3.74;63.64
62402;BME280;48440;51.224;22.506;2023-02-10T05:28:37;100615.41;;;-3.66;63.13
62402;BME280;48440;51.224;22.506;2023-02-10T05:31:02;100610.13;;;-3.66;63.24
62402;BME280;48440;51.224;22.506;2023-02-10T05:33:32;100608.69;;;-3.70;63.29
62402;BME280;48440;51.224;22.506;2023-02-10T05:35:59;100614.44;;;-3.65;63.05
62402;BME280;48440;51.224;22.506;2023-02-10T05:38:24;100605.91;;;-3.68;63.30
62402;BME280;48440;51.224;22.506;2023-02-10T05:40:51;100609.91;;;-3.74;63.42
62402;BME280;48440;51.224;22.506;2023-02-10T05:43:17;100607.13;;;-3.72;63.38
62402;BME280;48440;51.224;22.506;2023-02-10T05:45:45;100612.91;;;-3.67;63.53
62402;BME280;48440;51.224;22.506;2023-02-10T05:48:10;100606.28;;;-3.73;62.99
62402;BME280;48440;51.224;22.506;2023-02-10T05:50:36;100604.63;;;-3.74;63.02
62402;BME280;48440;51.224;22.506;2023-02-10T05:53:02;100605.72;;;-3.77;62.99
62402;BME280;48440;51.224;22.506;2023-02-10T05:55:27;100596.66;;;-3.74;63.16
62402;BME280;48440;51.224;22.506;2023-02-10T05:57:52;100596.91;;;-3.77;63.13
62402;BME280;48440;51.224;22.506;2023-02-10T06:00:18;100602.81;;;-3.73;63.22
62402;BME280;48440;51.224;22.506;2023-02-10T06:02:44;100603.63;;;-3.73;63.02
62402;BME280;48440;51.224;22.506;2023-02-10T06:05:09;100602.81;;;-3.73;63.51
62402;BME280;48440;51.224;22.506;2023-02-10T06:07:35;100601.25;;;-3.76;62.97
62402;BME280;48440;51.224;22.506;2023-02-10T06:10:00;100599.94;;;-3.82;63.04
62402;BME280;48440;51.224;22.506;2023-02-10T06:12:25;100609.59;;;-3.81;63.05
62402;BME280;48440;51.224;22.506;2023-02-10T06:14:51;100610.56;;;-3.82;63.08
62402;BME280;48440;51.224;22.506;2023-02-10T06:17:17;100609.59;;;-3.81;63.05
62402;BME280;48440;51.224;22.506;2023-02-10T06:19:42;100613.22;;;-3.82;63.11
62402;BME280;48440;51.224;22.506;2023-02-10T06:22:09;100619.81;;;-3.76;63.46
62402;BME280;48440;51.224;22.506;2023-02-10T06:24:35;100633.09;;;-3.76;63.45
62402;BME280;48440;51.224;22.506;2023-02-10T06:27:00;100637.28;;;-3.73;63.37
62402;BME280;48440;51.224;22.506;2023-02-10T06:29:26;100627.84;;;-3.66;62.92
62402;BME280;48440;51.224;22.506;2023-02-10T06:31:52;100638.13;;;-3.73;63.04
62402;BME280;48440;51.224;22.506;2023-02-10T06:34:17;100634.38;;;-3.70;62.59
62402;BME280;48440;51.224;22.506;2023-02-10T06:36:43;100636.78;;;-3.67;63.03
62402;BME280;48440;51.224;22.506;2023-02-10T06:39:08;100624.22;;;-3.65;62.64
62402;BME280;48440;51.224;22.506;2023-02-10T06:41:34;100633.88;;;-3.64;62.93
62402;BME280;48440;51.224;22.506;2023-02-10T06:43:59;100637.78;;;-3.59;62.63
62402;BME280;48440;51.224;22.506;2023-02-10T06:46:25;100637.78;;;-3.59;62.62
62402;BME280;48440;51.224;22.506;2023-02-10T06:48:51;100638.34;;;-3.55;62.37
62402;BME280;48440;51.224;22.506;2023-02-10T06:51:17;100636.03;;;-3.49;62.66
62402;BME280;48440;51.224;22.506;2023-02-10T06:53:42;100640.09;;;-3.45;62.09
62402;BME280;48440;51.224;22.506;2023-02-10T06:56:08;100636.38;;;-3.32;62.16
62402;BME280;48440;51.224;22.506;2023-02-10T06:58:34;100641.03;;;-3.25;61.75
62402;BME280;48440;51.224;22.506;2023-02-10T07:00:59;100633.75;;;-3.23;61.95
62402;BME280;48440;51.224;22.506;2023-02-10T07:03:26;100643.00;;;-3.17;61.76
62402;BME280;48440;51.224;22.506;2023-02-10T07:05:52;100643.59;;;-3.04;60.93
62402;BME280;48440;51.224;22.506;2023-02-10T07:08:17;100646.97;;;-3.02;60.92
62402;BME280;48440;51.224;22.506;2023-02-10T07:10:42;100654.00;;;-2.91;61.10
62402;BME280;48440;51.224;22.506;2023-02-10T07:13:08;100650.25;;;-2.79;60.18
62402;BME280;48440;51.224;22.506;2023-02-10T07:15:33;100650.09;;;-2.78;60.36
62402;BME280;48440;51.224;22.506;2023-02-10T07:17:59;100645.09;;;-2.71;60.24
62402;BME280;48440;51.224;22.506;2023-02-10T07:20:25;100654.78;;;-2.60;60.18
62402;BME280;48440;51.224;22.506;2023-02-10T07:22:51;100656.84;;;-2.54;60.00
62402;BME280;48440;51.224;22.506;2023-02-10T07:25:17;100660.38;;;-2.44;59.04
62402;BME280;48440;51.224;22.506;2023-02-10T07:27:42;100665.84;;;-2.36;59.12
62402;BME280;48440;51.224;22.506;2023-02-10T07:30:09;100671.72;;;-2.32;58.96
62402;BME280;48440;51.224;22.506;2023-02-10T07:32:36;100673.69;;;-2.25;58.74
62402;BME280;48440;51.224;22.506;2023-02-10T07:35:07;100674.66;;;-2.26;59.43
62402;BME280;48440;51.224;22.506;2023-02-10T07:37:32;100673.00;;;-2.17;58.93
62402;BME280;48440;51.224;22.506;2023-02-10T07:39:58;100671.19;;;-2.17;59.04
62402;BME280;48440;51.224;22.506;2023-02-10T07:42:23;100671.88;;;-2.15;58.70
62402;BME280;48440;51.224;22.506;2023-02-10T07:44:49;100676.47;;;-2.07;58.41
62402;BME280;48440;51.224;22.506;2023-02-10T07:47:14;100682.25;;;-2.12;58.28
62402;BME280;48440;51.224;22.506;2023-02-10T07:49:39;100673.41;;;-2.02;58.18
62402;BME280;48440;51.224;22.506;2023-02-10T07:52:05;100667.94;;;-2.01;58.26
62402;BME280;48440;51.224;22.506;2023-02-10T07:54:30;100662.63;;;-2.01;58.24
62402;BME280;48440;51.224;22.506;2023-02-10T07:56:56;100652.69;;;-1.89;57.83
62402;BME280;48440;51.224;22.506;2023-02-10T07:59:21;100647.19;;;-1.68;57.56
62402;BME280;48440;51.224;22.506;2023-02-10T08:01:47;100645.34;;;-0.49;55.94
62402;BME280;48440;51.224;22.506;2023-02-10T08:04:12;100649.66;;;1.09;51.71
62402;BME280;48440;51.224;22.506;2023-02-10T08:06:38;100644.53;;;2.07;48.40
62402;BME280;48440;51.224;22.506;2023-02-10T08:09:04;100647.22;;;2.94;46.35
62402;BME280;48440;51.224;22.506;2023-02-10T08:11:30;100634.84;;;3.24;45.06
62402;BME280;48440;51.224;22.506;2023-02-10T08:13:56;100643.88;;;3.31;44.50
62402;BME280;48440;51.224;22.506;2023-02-10T08:16:22;100639.94;;;3.73;43.05
62402;BME280;48440;51.224;22.506;2023-02-10T08:18:47;100639.75;;;4.20;42.46
62402;BME280;48440;51.224;22.506;2023-02-10T08:21:12;100634.72;;;4.69;41.39
62402;BME280;48440;51.224;22.506;2023-02-10T08:23:38;100642.72;;;5.07;40.40
62402;BME280;48440;51.224;22.506;2023-02-10T08:26:05;100647.06;;;5.23;39.23
62402;BME280;48440;51.224;22.506;2023-02-10T08:28:31;100646.69;;;5.26;39.77
62402;BME280;48440;51.224;22.506;2023-02-10T08:31:01;100651.91;;;4.83;40.52
62402;BME280;48440;51.224;22.506;2023-02-10T08:33:26;100649.06;;;3.64;43.14
62402;BME280;48440;51.224;22.506;2023-02-10T08:35:52;100640.13;;;2.46;45.74
62402;BME280;48440;51.224;22.506;2023-02-10T08:38:17;100645.81;;;1.70;48.32
62402;BME280;48440;51.224;22.506;2023-02-10T08:40:43;100648.81;;;1.09;50.31
62402;BME280;48440;51.224;22.506;2023-02-10T08:43:08;100646.59;;;0.62;51.00
62402;BME280;48440;51.224;22.506;2023-02-10T08:45:33;100651.88;;;0.28;52.25
62402;BME280;48440;51.224;22.506;2023-02-10T08:47:59;100638.81;;;-0.01;53.14
62402;BME280;48440;51.224;22.506;2023-02-10T08:50:26;100648.25;;;-0.24;53.86
62402;BME280;48440;51.224;22.506;2023-02-10T08:52:52;100643.00;;;-0.34;54.57
62402;BME280;48440;51.224;22.506;2023-02-10T08:55:18;100662.72;;;-0.45;55.01
62402;BME280;48440;51.224;22.506;2023-02-10T08:57:43;100657.25;;;-0.61;55.74
62402;BME280;48440;51.224;22.506;2023-02-10T09:00:09;100654.72;;;-0.62;56.08
62402;BME280;48440;51.224;22.506;2023-02-10T09:02:34;100658.13;;;-0.70;56.42
62402;BME280;48440;51.224;22.506;2023-02-10T09:05:01;100664.19;;;-0.78;56.79
62402;BME280;48440;51.224;22.506;2023-02-10T09:07:27;100666.63;;;-0.84;56.99
62402;BME280;48440;51.224;22.506;2023-02-10T09:09:52;100671.81;;;-0.83;57.38
62402;BME280;48440;51.224;22.506;2023-02-10T09:12:18;100679.97;;;-0.84;58.11
62402;BME280;48440;51.224;22.506;2023-02-10T09:14:43;100688.09;;;-0.86;58.18
62402;BME280;48440;51.224;22.506;2023-02-10T09:17:10;100688.09;;;-0.86;58.25
62402;BME280;48440;51.224;22.506;2023-02-10T09:19:36;100681.94;;;-0.86;58.41
62402;BME280;48440;51.224;22.506;2023-02-10T09:22:03;100680.94;;;-0.85;58.33
62402;BME280;48440;51.224;22.506;2023-02-10T09:24:29;100677.44;;;-0.86;58.66
62402;BME280;48440;51.224;22.506;2023-02-10T09:26:54;100680.66;;;-0.82;58.73
62402;BME280;48440;51.224;22.506;2023-02-10T09:29:20;100685.38;;;-0.76;58.91
62402;BME280;48440;51.224;22.506;2023-02-10T09:31:45;100682.72;;;-0.76;59.25
62402;BME280;48440;51.224;22.506;2023-02-10T09:34:11;100684.94;;;-0.72;59.65
62402;BME280;48440;51.224;22.506;2023-02-10T09:36:36;100672.16;;;-0.68;59.89
62402;BME280;48440;51.224;22.506;2023-02-10T09:39:02;100671.56;;;-0.62;59.14
62402;BME280;48440;51.224;22.506;2023-02-10T09:44:22;100678.13;;;-0.56;59.77
62402;BME280;48440;51.224;22.506;2023-02-10T09:52:41;100663.13;;;-0.40;59.66
62402;BME280;48440;51.224;22.506;2023-02-10T09:56:03;100670.28;;;-0.40;59.62
62402;BME280;48440;51.224;22.506;2023-02-10T10:00:48;100669.19;;;-0.47;59.07
62402;BME280;48440;51.224;22.506;2023-02-10T10:03:19;100671.56;;;-0.44;59.45
62402;BME280;48440;51.224;22.506;2023-02-10T10:06:02;100669.50;;;-0.50;58.15
62402;BME280;48440;51.224;22.506;2023-02-10T10:11:01;100665.09;;;-0.42;58.51
62402;BME280;48440;51.224;22.506;2023-02-10T10:13:28;100668.06;;;-0.45;58.37
62402;BME280;48440;51.224;22.506;2023-02-10T10:16:14;100666.94;;;-0.42;58.80
62402;BME280;48440;51.224;22.506;2023-02-10T10:27:24;100656.50;;;-0.36;58.62
62402;BME280;48440;51.224;22.506;2023-02-10T10:29:55;100649.03;;;-0.32;58.90
62402;BME280;48440;51.224;22.506;2023-02-10T10:32:35;100653.59;;;-0.24;58.75
62402;BME280;48440;51.224;22.506;2023-02-10T10:35:04;100657.78;;;-0.22;58.98
62402;BME280;48440;51.224;22.506;2023-02-10T10:37:30;100658.16;;;-0.17;58.54
62402;BME280;48440;51.224;22.506;2023-02-10T10:40:03;100653.81;;;-0.18;58.80
62402;BME280;48440;51.224;22.506;2023-02-10T10:42:56;100653.00;;;-0.18;59.01
62402;BME280;48440;51.224;22.506;2023-02-10T10:45:46;100647.13;;;-0.22;58.99
62402;BME280;48440;51.224;22.506;2023-02-10T10:48:21;100645.75;;;-0.26;59.14
62402;BME280;48440;51.224;22.506;2023-02-10T10:50:52;100643.59;;;-0.22;59.76
62402;BME280;48440;51.224;22.506;2023-02-10T10:56:11;100640.34;;;-0.16;59.53
62402;BME280;48440;51.224;22.506;2023-02-10T10:58:40;100635.69;;;-0.14;59.49
62402;BME280;48440;51.224;22.506;2023-02-10T11:01:08;100644.53;;;-0.14;59.96
62402;BME280;48440;51.224;22.506;2023-02-10T11:03:33;100642.25;;;-0.09;59.25
62402;BME280;48440;51.224;22.506;2023-02-10T11:06:07;100647.28;;;-0.06;59.81
62402;BME280;48440;51.224;22.506;2023-02-10T11:08:40;100643.63;;;-0.05;59.25
62402;BME280;48440;51.224;22.506;2023-02-10T11:11:10;100649.78;;;-0.04;59.29
62402;BME280;48440;51.224;22.506;2023-02-10T11:13:38;100650.25;;;-0.09;60.25
62402;BME280;48440;51.224;22.506;2023-02-10T11:16:13;100649.56;;;-0.11;60.15
62402;BME280;48440;51.224;22.506;2023-02-10T11:18:59;100645.06;;;-0.10;60.64
62402;BME280;48440;51.224;22.506;2023-02-10T11:21:37;100638.59;;;-0.08;60.39
62402;BME280;48440;51.224;22.506;2023-02-10T11:24:17;100638.28;;;-0.05;60.14
62402;BME280;48440;51.224;22.506;2023-02-10T11:27:03;100625.13;;;0.02;59.99
62402;BME280;48440;51.224;22.506;2023-02-10T11:29:44;100616.97;;;0.04;59.88
62402;BME280;48440;51.224;22.506;2023-02-10T11:32:34;100617.88;;;0.12;60.07
62402;BME280;48440;51.224;22.506;2023-02-10T11:35:02;100621.63;;;0.19;59.54
62402;BME280;48440;51.224;22.506;2023-02-10T11:37:35;100638.00;;;0.24;59.52
62402;BME280;48440;51.224;22.506;2023-02-10T11:40:26;100648.00;;;0.22;59.38
62402;BME280;48440;51.224;22.506;2023-02-10T11:42:52;100639.31;;;0.20;59.93
62402;BME280;48440;51.224;22.506;2023-02-10T11:45:24;100641.97;;;0.20;59.46
62402;BME280;48440;51.224;22.506;2023-02-10T11:48:00;100629.84;;;0.26;60.10
62402;BME280;48440;51.224;22.506;2023-02-10T11:50:34;100627.22;;;0.34;59.73
62402;BME280;48440;51.224;22.506;2023-02-10T11:53:02;100629.31;;;0.48;59.72
62402;BME280;48440;51.224;22.506;2023-02-10T11:55:41;100623.00;;;0.57;60.13
62402;BME280;48440;51.224;22.506;2023-02-10T11:58:52;100619.72;;;0.63;60.09
62402;BME280;48440;51.224;22.506;2023-02-10T12:10:27;100634.13;;;0.45;60.70
62402;BME280;48440;51.224;22.506;2023-02-10T12:16:04;100629.94;;;0.42;61.58
62402;BME280;48440;51.224;22.506;2023-02-10T12:27:27;100631.09;;;0.65;61.40
62402;BME280;48440;51.224;22.506;2023-02-10T12:30:07;100626.72;;;0.64;61.09
62402;BME280;48440;51.224;22.506;2023-02-10T12:39:13;100637.53;;;0.55;62.94
62402;BME280;48440;51.224;22.506;2023-02-10T12:44:25;100639.50;;;0.53;63.59
62402;BME280;48440;51.224;22.506;2023-02-10T12:50:07;100635.50;;;0.49;64.40
62402;BME280;48440;51.224;22.506;2023-02-10T12:52:42;100647.88;;;0.50;65.09
62402;BME280;48440;51.224;22.506;2023-02-10T12:57:45;100643.34;;;0.50;65.23
62402;BME280;48440;51.224;22.506;2023-02-10T13:00:19;100646.66;;;0.44;65.99
62402;BME280;48440;51.224;22.506;2023-02-10T13:02:56;100654.50;;;0.46;65.72
62402;BME280;48440;51.224;22.506;2023-02-10T13:05:31;100656.34;;;0.45;66.37
62402;BME280;48440;51.224;22.506;2023-02-10T13:08:00;100651.00;;;0.45;66.73
62402;BME280;48440;51.224;22.506;2023-02-10T13:15:41;100658.06;;;0.54;67.63
62402;BME280;48440;51.224;22.506;2023-02-10T13:18:31;100652.94;;;0.61;67.30
62402;BME280;48440;51.224;22.506;2023-02-10T13:24:22;100649.72;;;0.57;67.75
62402;BME280;48440;51.224;22.506;2023-02-10T13:30:21;100656.75;;;0.58;67.89
62402;BME280;48440;51.224;22.506;2023-02-10T13:33:11;100649.56;;;0.59;68.42
62402;BME280;48440;51.224;22.506;2023-02-10T13:35:41;100658.28;;;0.61;68.53
62402;BME280;48440;51.224;22.506;2023-02-10T13:38:10;100667.97;;;0.62;68.72
62402;BME280;48440;51.224;22.506;2023-02-10T13:40:53;100666.13;;;0.62;68.44
62402;BME280;48440;51.224;22.506;2023-02-10T13:43:39;100665.28;;;0.62;69.10
62402;BME280;48440;51.224;22.506;2023-02-10T13:46:05;100670.47;;;0.63;69.11
62402;BME280;48440;51.224;22.506;2023-02-10T13:48:41;100668.66;;;0.64;69.31
62402;BME280;48440;51.224;22.506;2023-02-10T13:51:09;100675.66;;;0.65;69.34
62402;BME280;48440;51.224;22.506;2023-02-10T14:04:04;100682.31;;;0.61;69.41
62402;BME280;48440;51.224;22.506;2023-02-10T14:06:37;100688.50;;;0.61;69.15
62402;BME280;48440;51.224;22.506;2023-02-10T14:11:43;100682.31;;;0.61;69.19
62402;BME280;48440;51.224;22.506;2023-02-10T14:16:47;100681.69;;;0.67;68.48
62402;BME280;48440;51.224;22.506;2023-02-10T14:19:27;100682.53;;;0.67;68.70
62402;BME280;48440;51.224;22.506;2023-02-10T14:21:53;100686.88;;;0.68;68.58
62402;BME280;48440;51.224;22.506;2023-02-10T14:24:25;100707.94;;;0.72;68.58
62402;BME280;48440;51.224;22.506;2023-02-10T14:26:56;100700.94;;;0.71;68.58
62402;BME280;48440;51.224;22.506;2023-02-10T14:29:22;100704.75;;;0.68;69.14
62402;BME280;48440;51.224;22.506;2023-02-10T14:31:51;100712.06;;;0.66;69.67
62402;BME280;48440;51.224;22.506;2023-02-10T14:34:24;100713.22;;;0.63;70.06
62402;BME280;48440;51.224;22.506;2023-02-10T14:37:02;100700.88;;;0.62;71.04
62402;BME280;48440;51.224;22.506;2023-02-10T14:39:37;100721.56;;;0.60;70.90